Time;durP1;ratioP1;P1;durP2;ratioP2;P2;SDS_P1;SDS_P2;PMS_P1;PMS_P2;Temp;Humidity;BMP_temperature;BMP_pressure;BME280_temperature;BME280_humidity;BME280_pressure;Samples;Min_cycle;Max_cycle;Signal;HPM_P1;HPM_P2
2023/04/20 00:00:58;;;;;;;25.00;18.40;;;;;;;10.07;71.54;99156.68;221155;181;148099;-65
2023/04/20 00:06:03;;;;;;;25.00;18.30;;;;;;;9.98;71.67;99155.77;221120;181;138668;-61
2023/04/20 00:11:07;;;;;;;29.00;17.80;;;;;;;9.91;71.64;99154.39;221112;181;137935;-64
2023/04/20 00:25:26;;;;;;;28.50;19.30;;;;;;;9.88;71.41;99152.98;219799;193;665224;-63
2023/04/20 00:30:30;;;;;;;28.30;19.60;;;;;;;9.80;71.37;99144.25;221075;184;136581;-66
2023/04/20 00:35:34;;;;;;;25.80;19.30;;;;;;;9.74;71.52;99142.10;220991;183;143904;-66
2023/04/20 00:40:42;;;;;;;29.50;19.80;;;;;;;9.69;71.53;99146.64;221011;183;138942;-69
2023/04/20 00:45:48;;;;;;;47.20;21.30;;;;;;;9.63;71.61;99149.29;221047;183;136990;-66
2023/04/20 00:50:52;;;;;;;35.00;19.60;;;;;;;9.57;71.68;99151.54;221047;183;144132;-62
2023/04/20 00:55:58;;;;;;;35.80;17.90;;;;;;;9.54;71.91;99156.88;220813;184;139769;-61
2023/04/20 01:01:06;;;;;;;25.50;18.50;;;;;;;9.52;71.91;99153.27;220982;183;137085;-62
2023/04/20 01:06:17;;;;;;;30.40;20.20;;;;;;;9.56;72.17;99148.58;221062;183;145458;-63
2023/04/20 01:11:23;;;;;;;32.40;20.00;;;;;;;9.59;72.10;99149.67;220843;183;139275;-63
2023/04/20 01:16:33;;;;;;;29.60;20.20;;;;;;;9.55;71.99;99157.67;220925;182;136763;-63
2023/04/20 01:21:37;;;;;;;27.20;20.30;;;;;;;9.53;72.27;99155.52;220928;183;146139;-62
2023/04/20 01:26:41;;;;;;;29.50;20.60;;;;;;;9.51;72.41;99155.27;220848;183;139883;-62
2023/04/20 01:31:46;;;;;;;30.40;21.00;;;;;;;9.50;72.77;99153.20;220976;183;137785;-63
2023/04/20 01:36:50;;;;;;;28.20;19.30;;;;;;;9.54;72.81;99145.38;220965;184;146058;-67
2023/04/20 01:41:53;;;;;;;31.40;20.00;;;;;;;9.58;72.94;99142.45;221065;181;139238;-61
2023/04/20 01:47:00;;;;;;;33.40;21.60;;;;;;;9.62;72.98;99141.89;221136;181;137145;-61
2023/04/20 01:52:05;;;;;;;29.70;21.30;;;;;;;9.64;72.96;99138.92;221118;181;146402;-61
2023/04/20 01:57:09;;;;;;;29.80;21.30;;;;;;;9.64;72.94;99141.41;221183;181;138835;-60
2023/04/20 02:02:13;;;;;;;29.00;21.30;;;;;;;9.63;72.83;99141.27;221237;181;138076;-66
2023/04/20 02:07:17;;;;;;;28.20;21.50;;;;;;;9.64;73.05;99144.58;221250;181;146805;-64
2023/04/20 02:12:21;;;;;;;29.10;20.30;;;;;;;9.67;73.20;99145.48;221143;181;138885;-62
2023/04/20 02:17:25;;;;;;;29.60;20.60;;;;;;;9.66;73.13;99143.05;221156;181;138341;-66
2023/04/20 02:22:34;;;;;;;28.00;20.30;;;;;;;9.65;73.00;99147.18;221132;181;146402;-65
2023/04/20 02:27:38;;;;;;;29.40;21.30;;;;;;;9.66;72.96;99142.73;221191;181;139099;-62
2023/04/20 02:32:43;;;;;;;31.70;21.40;;;;;;;9.72;72.97;99140.25;221113;181;136904;-64
2023/04/20 02:37:50;;;;;;;34.00;23.10;;;;;;;9.76;72.82;99142.85;221219;181;146287;-64
2023/04/20 02:42:54;;;;;;;30.30;22.10;;;;;;;9.74;72.77;99145.48;221097;181;139376;-64
2023/04/20 02:47:59;;;;;;;45.80;32.90;;;;;;;9.80;73.34;99150.62;221153;181;137936;-60
2023/04/20 02:53:05;;;;;;;54.30;36.90;;;;;;;9.80;73.14;99147.75;221052;181;145587;-61
2023/04/20 02:58:10;;;;;;;31.20;23.30;;;;;;;9.81;73.46;99149.65;221074;181;139261;-60
2023/04/20 03:03:34;;;;;;;29.60;20.40;;;;;;;9.87;73.38;99152.67;221043;182;139132;-61
2023/04/20 03:08:40;;;;;;;30.00;20.90;;;;;;;9.87;73.23;99146.45;221111;181;146744;-62
2023/04/20 03:14:19;;;;;;;30.70;21.20;;;;;;;9.90;73.34;99144.34;221117;181;139901;-61
2023/04/20 03:19:24;;;;;;;30.60;21.40;;;;;;;9.91;73.27;99140.20;221189;180;137468;-61
2023/04/20 03:24:28;;;;;;;57.30;38.50;;;;;;;9.91;73.58;99143.06;221083;181;145997;-62
2023/04/20 03:29:33;;;;;;;31.90;21.50;;;;;;;9.97;73.18;99152.28;221066;180;138952;-65
2023/04/20 03:34:37;;;;;;;30.00;21.10;;;;;;;9.93;73.05;99148.76;221208;181;137895;-65
2023/04/20 03:39:41;;;;;;;30.40;20.70;;;;;;;9.88;73.09;99143.92;221134;181;146110;-66
2023/04/20 03:44:44;;;;;;;31.20;21.10;;;;;;;9.89;72.98;99143.52;221117;178;139291;-63
2023/04/20 03:49:50;;;;;;;33.00;22.40;;;;;;;9.94;72.80;99150.84;221175;181;136842;-63
2023/04/20 03:54:53;;;;;;;37.60;26.50;;;;;;;9.98;73.30;99150.08;221074;181;145884;-63
2023/04/20 03:59:57;;;;;;;34.90;22.80;;;;;;;10.03;72.73;99150.88;221017;181;138914;-64
2023/04/20 04:05:05;;;;;;;31.50;22.90;;;;;;;10.00;72.62;99155.86;221117;181;137345;-64
2023/04/20 04:10:10;;;;;;;35.50;23.20;;;;;;;9.96;72.75;99159.23;221061;181;146281;-62
2023/04/20 04:15:17;;;;;;;34.00;22.80;;;;;;;9.96;72.73;99162.98;221077;181;138574;-63
2023/04/20 04:20:33;;;;;;;31.20;22.10;;;;;;;9.97;72.67;99163.61;221077;182;138751;-62
2023/04/20 04:25:39;;;;;;;34.40;22.00;;;;;;;10.03;72.78;99166.27;221114;181;146849;-62
2023/04/20 04:30:46;;;;;;;31.70;22.50;;;;;;;10.06;72.53;99165.08;221167;181;138696;-61
2023/04/20 04:35:52;;;;;;;31.00;22.20;;;;;;;10.06;72.53;99170.19;221081;181;137312;-63
2023/04/20 04:40:56;;;;;;;33.80;23.30;;;;;;;10.06;72.49;99177.45;221039;181;146213;-62
2023/04/20 04:46:09;;;;;;;30.70;21.60;;;;;;;10.04;72.38;99180.27;221124;181;138937;-62
2023/04/20 04:51:12;;;;;;;32.30;21.60;;;;;;;9.98;72.35;99186.24;221160;181;137896;-62
2023/04/20 04:56:17;;;;;;;28.70;20.50;;;;;;;9.97;72.47;99198.20;221088;181;148823;-63
2023/04/20 05:01:21;;;;;;;32.50;20.70;;;;;;;9.99;72.45;99203.56;221168;181;139103;-62
2023/04/20 05:06:25;;;;;;;29.80;20.70;;;;;;;10.09;72.45;99206.88;221061;182;137985;-62
2023/04/20 05:11:30;;;;;;;31.60;22.40;;;;;;;10.22;72.32;99212.36;221121;181;145888;-63
2023/04/20 05:16:35;;;;;;;33.60;22.90;;;;;;;10.30;72.09;99211.40;221065;181;138708;-62
2023/04/20 05:21:40;;;;;;;30.70;21.70;;;;;;;10.29;72.00;99213.23;221107;181;140369;-62
2023/04/20 05:26:45;;;;;;;33.10;22.30;;;;;;;10.31;72.17;99219.28;221091;181;146142;-63
2023/04/20 05:31:49;;;;;;;32.60;22.30;;;;;;;10.37;71.96;99219.33;221125;181;138818;-62
2023/04/20 05:36:55;;;;;;;37.10;23.40;;;;;;;10.42;72.01;99218.82;221111;181;137273;-62
2023/04/20 05:42:00;;;;;;;34.30;21.20;;;;;;;10.46;72.12;99220.39;221100;181;145756;-64
2023/04/20 05:47:07;;;;;;;29.30;20.30;;;;;;;10.52;72.04;99222.15;221113;181;140441;-66
2023/04/20 05:52:12;;;;;;;32.30;21.30;;;;;;;10.65;72.13;99228.52;221076;181;138394;-64
2023/04/20 05:57:15;;;;;;;33.70;21.60;;;;;;;10.74;71.65;99232.05;221151;181;145714;-65
2023/04/20 06:02:20;;;;;;;32.50;22.10;;;;;;;10.81;71.36;99229.83;221079;181;142095;-65
2023/04/20 06:07:25;;;;;;;31.20;21.70;;;;;;;10.82;71.38;99229.96;221199;181;137329;-61
2023/04/20 06:12:29;;;;;;;32.20;23.00;;;;;;;10.90;71.78;99231.11;221063;181;145852;-66
2023/04/20 06:17:38;;;;;;;;;;;;;;;10.97;71.69;99222.31;220955;178;139375;-63
2023/04/20 06:22:44;;;;;;;33.00;22.10;;;;;;;11.04;71.52;99216.54;221140;177;131185;-63
2023/04/20 06:27:47;;;;;;;32.10;21.90;;;;;;;11.09;71.87;99225.66;221062;181;145724;-64
2023/04/20 06:32:55;;;;;;;36.30;22.00;;;;;;;11.20;72.42;99228.33;221098;181;139976;-65
2023/04/20 06:38:01;;;;;;;30.80;21.10;;;;;;;11.42;72.38;99227.70;221174;181;139013;-62
2023/04/20 06:43:06;;;;;;;34.10;22.40;;;;;;;11.67;71.83;99225.10;220971;181;145779;-66
2023/04/20 06:48:09;;;;;;;32.30;22.30;;;;;;;11.82;71.30;99224.29;221083;181;138929;-64
2023/04/20 06:53:34;;;;;;;33.70;21.90;;;;;;;11.97;71.02;99218.73;221159;181;140196;-62
2023/04/20 06:58:39;;;;;;;30.30;20.60;;;;;;;12.12;70.21;99214.58;221040;181;145753;-64
2023/04/20 07:03:42;;;;;;;26.40;17.40;;;;;;;12.16;69.68;99216.95;221172;181;138942;-63
2023/04/20 07:08:46;;;;;;;65.40;44.80;;;;;;;12.24;69.67;99223.02;221139;181;137316;-65
2023/04/20 07:13:50;;;;;;;23.70;15.10;;;;;;;12.30;69.33;99227.20;220882;181;145664;-62
2023/04/20 07:18:53;;;;;;;22.00;15.90;;;;;;;12.38;68.90;99231.15;220946;181;139251;-65
2023/04/20 07:23:57;;;;;;;20.40;14.90;;;;;;;12.51;68.72;99231.20;221052;181;138841;-64
2023/04/20 07:29:03;;;;;;;;;;;;;;;12.72;68.12;99231.34;221117;181;145906;-63
2023/04/20 07:34:07;;;;;;;24.50;15.10;;;;;;;12.85;67.76;99232.11;221113;181;138892;-64
2023/04/20 07:39:12;;;;;;;28.00;13.80;;;;;;;13.02;67.44;99236.48;221124;181;137107;-64
2023/04/20 07:44:16;;;;;;;30.10;19.90;;;;;;;13.14;66.90;99237.41;221097;181;145703;-63
2023/04/20 07:49:19;;;;;;;18.90;12.80;;;;;;;13.25;65.90;99238.45;221150;181;138979;-63
2023/04/20 07:54:23;;;;;;;18.90;12.40;;;;;;;13.29;65.20;99240.71;221132;181;137158;-62
2023/04/20 07:59:26;;;;;;;19.20;11.50;;;;;;;13.31;64.78;99236.48;221079;181;146153;-62
2023/04/20 08:04:31;;;;;;;17.90;10.50;;;;;;;13.35;64.70;99242.20;221077;181;139551;-63
2023/04/20 08:09:36;;;;;;;13.50;10.20;;;;;;;13.38;64.32;99245.58;221006;181;140917;-62
2023/04/20 08:14:40;;;;;;;17.70;10.30;;;;;;;13.42;64.29;99245.77;221068;181;146260;-62
2023/04/20 08:19:43;;;;;;;21.90;11.80;;;;;;;13.50;64.52;99248.27;221099;181;139790;-64
2023/04/20 08:24:48;;;;;;;23.80;11.30;;;;;;;13.57;63.92;99248.15;220988;181;137129;-64
2023/04/20 08:29:52;;;;;;;17.20;10.90;;;;;;;13.63;63.83;99250.23;221083;181;146206;-64
2023/04/20 08:34:56;;;;;;;15.50;9.60;;;;;;;13.66;63.82;99253.89;221156;181;139363;-64
2023/04/20 08:39:59;;;;;;;18.20;10.00;;;;;;;13.70;63.38;99258.60;221186;181;137876;-64
2023/04/20 08:45:04;;;;;;;16.60;10.70;;;;;;;13.77;63.45;99250.98;221162;181;146773;-63
2023/04/20 08:50:08;;;;;;;16.20;9.70;;;;;;;13.90;62.82;99249.52;221188;181;139110;-64
2023/04/20 08:55:19;;;;;;;18.70;10.30;;;;;;;14.00;62.36;99248.64;221040;181;137958;-64
2023/04/20 09:00:23;;;;;;;13.50;9.70;;;;;;;14.10;62.45;99247.90;221128;181;147673;-63
2023/04/20 09:05:29;;;;;;;13.50;9.30;;;;;;;14.16;62.30;99248.71;221021;181;139113;-64
2023/04/20 09:10:45;;;;;;;13.20;9.40;;;;;;;14.20;61.65;99248.92;221024;181;138487;-69
2023/04/20 09:15:49;;;;;;;14.10;9.50;;;;;;;14.23;61.20;99254.26;221175;177;148026;-62
2023/04/20 09:20:52;;;;;;;14.10;10.00;;;;;;;14.15;61.04;99254.23;221021;181;138801;-64
2023/04/20 09:25:55;;;;;;;15.00;9.40;;;;;;;14.15;60.65;99253.55;221256;181;137378;-64
2023/04/20 09:30:59;;;;;;;490.60;363.00;;;;;;;14.14;61.07;99254.86;221066;181;147807;-62
2023/04/20 09:36:05;;;;;;;23.20;15.30;;;;;;;14.23;60.11;99257.64;220977;181;140714;-63
2023/04/20 09:41:09;;;;;;;9.40;6.30;;;;;;;14.34;59.01;99254.81;221133;181;138123;-62
2023/04/20 09:46:13;;;;;;;13.60;7.60;;;;;;;14.49;58.96;99255.88;221237;181;149628;-64
2023/04/20 09:51:19;;;;;;;14.20;7.80;;;;;;;14.54;59.05;99257.50;221069;181;138828;-63
2023/04/20 09:56:25;;;;;;;13.10;7.30;;;;;;;14.56;59.01;99252.18;221183;181;137499;-63
2023/04/20 10:01:33;;;;;;;11.90;7.50;;;;;;;14.61;59.45;99249.27;221074;178;148339;-63
2023/04/20 10:06:39;;;;;;;13.70;7.60;;;;;;;14.67;59.62;99246.83;221104;181;139999;-62
2023/04/20 10:11:44;;;;;;;11.40;7.60;;;;;;;14.68;59.31;99247.01;221056;181;137582;-63
2023/04/20 10:17:00;;;;;;;13.60;8.30;;;;;;;14.62;59.55;99247.95;221180;181;147880;-66
2023/04/20 10:22:06;;;;;;;12.00;7.60;;;;;;;14.54;59.44;99248.23;221144;181;140995;-62
2023/04/20 10:27:18;;;;;;;13.90;8.80;;;;;;;14.49;59.76;99244.63;221149;181;137490;-63
2023/04/20 10:32:27;;;;;;;13.10;8.00;;;;;;;14.44;59.85;99243.73;221234;181;148637;-63
2023/04/20 10:37:31;;;;;;;17.60;8.60;;;;;;;14.36;59.93;99247.00;221194;181;139055;-63
2023/04/20 10:42:45;;;;;;;15.50;8.20;;;;;;;14.32;60.21;99248.70;221186;181;137366;-62
2023/04/20 10:47:49;;;;;;;15.90;9.40;;;;;;;14.26;60.27;99247.95;221257;180;147760;-63
2023/04/20 10:52:54;;;;;;;18.00;8.80;;;;;;;14.29;60.61;99239.86;221204;181;139104;-63
2023/04/20 10:57:57;;;;;;;11.40;7.50;;;;;;;14.49;60.91;99239.27;221186;181;137684;-63
2023/04/20 11:03:03;;;;;;;10.70;7.20;;;;;;;14.68;60.62;99237.50;221231;181;149056;-63
2023/04/20 11:08:07;;;;;;;11.70;7.10;;;;;;;14.87;59.85;99233.41;221211;181;139097;-63
2023/04/20 11:13:22;;;;;;;10.80;7.50;;;;;;;14.99;59.63;99229.98;221138;181;138367;-65
2023/04/20 11:18:25;;;;;;;13.30;7.40;;;;;;;15.13;59.52;99222.97;221110;181;147882;-62
2023/04/20 11:23:37;;;;;;;10.10;6.50;;;;;;;15.29;59.05;99219.18;221140;181;138884;-63
2023/04/20 11:28:55;;;;;;;14.40;6.90;;;;;;;15.49;58.62;99225.20;221192;181;138271;-63
2023/04/20 11:33:58;;;;;;;13.00;7.00;;;;;;;15.69;58.39;99222.88;221115;181;148640;-63
2023/04/20 11:39:11;;;;;;;11.20;6.50;;;;;;;16.14;58.26;99223.67;221152;181;141125;-63
2023/04/20 11:44:19;;;;;;;14.10;7.10;;;;;;;16.74;57.30;99218.48;221251;181;137476;-62
2023/04/20 11:49:29;;;;;;;10.10;6.30;;;;;;;17.16;56.20;99215.64;221208;181;147925;-63
2023/04/20 14:05:32;;;;;;;11.60;3.60;;;;;;;17.52;49.98;99154.95;221558;191;666259;-65
2023/04/20 14:10:38;;;;;;;13.00;3.40;;;;;;;17.44;49.92;99154.95;223494;184;136808;-65
2023/04/20 14:15:41;;;;;;;12.30;3.60;;;;;;;17.41;49.51;99147.80;223512;185;143658;-65
2023/04/20 14:20:48;;;;;;;240.00;171.50;;;;;;;17.43;49.79;99150.70;223258;185;140652;-66
2023/04/20 14:25:51;;;;;;;14.50;5.70;;;;;;;17.48;50.33;99152.61;223681;183;138243;-66
2023/04/20 14:30:54;;;;;;;10.90;3.70;;;;;;;17.47;50.35;99152.30;223665;183;143132;-66
2023/04/20 14:35:58;;;;;;;13.00;3.60;;;;;;;17.48;50.53;99150.40;223658;183;138904;-67
2023/04/20 14:41:01;;;;;;;12.30;3.60;;;;;;;17.43;49.96;99149.94;223714;182;136561;-67
2023/04/20 14:46:04;;;;;;;14.30;3.70;;;;;;;17.43;50.37;99151.95;223696;183;143654;-67
2023/04/20 14:51:08;;;;;;;15.80;3.50;;;;;;;17.46;50.59;99153.69;223684;184;138572;-67
2023/04/20 14:56:11;;;;;;;17.70;4.20;;;;;;;17.46;50.12;99151.32;223616;183;138342;-66
2023/04/20 15:01:14;;;;;;;9.90;3.60;;;;;;;17.42;50.08;99153.70;223586;182;145368;-66
2023/04/20 15:06:17;;;;;;;12.50;3.50;;;;;;;17.43;50.05;99147.16;223572;183;138215;-66
2023/04/20 15:11:21;;;;;;;12.40;3.50;;;;;;;17.43;50.27;99148.19;223421;182;137610;-67
2023/04/20 15:16:24;;;;;;;13.80;3.30;;;;;;;17.47;50.18;99146.36;223386;183;146996;-69
2023/04/20 15:21:28;;;;;;;9.40;3.40;;;;;;;17.47;50.29;99143.23;223443;183;139152;-67
2023/04/20 15:26:34;;;;;;;9.00;3.60;;;;;;;17.48;50.17;99145.79;223415;182;137383;-67
2023/04/20 15:31:37;;;;;;;13.40;3.60;;;;;;;17.43;50.31;99150.56;223503;183;145302;-68
2023/04/20 15:36:43;;;;;;;13.20;3.80;;;;;;;17.38;50.17;99149.95;223357;183;138690;-68
2023/04/20 15:41:47;;;;;;;9.50;3.20;;;;;;;17.35;49.56;99146.29;223378;182;137117;-67
2023/04/20 15:46:50;;;;;;;98.70;22.60;;;;;;;17.29;49.80;99142.07;223520;182;145295;-64
2023/04/20 15:51:53;;;;;;;37.60;22.10;;;;;;;17.25;50.27;99143.30;223477;183;138340;-67
2023/04/20 15:56:56;;;;;;;12.10;4.50;;;;;;;17.16;50.01;99141.61;223428;216;136726;-67
2023/04/20 16:01:59;;;;;;;13.80;4.60;;;;;;;17.06;50.12;99139.30;223396;182;145288;-66
2023/04/20 16:07:03;;;;;;;14.10;3.90;;;;;;;16.99;49.79;99136.77;223353;183;138171;-66
2023/04/20 16:12:06;;;;;;;14.60;4.00;;;;;;;16.94;50.48;99138.69;223369;183;137261;-67
2023/04/20 16:17:10;;;;;;;12.90;3.70;;;;;;;16.90;50.53;99135.13;223498;216;145275;-67
2023/04/20 16:22:13;;;;;;;15.90;4.20;;;;;;;16.88;50.36;99137.59;223403;183;138365;-67
2023/04/20 16:27:17;;;;;;;8.50;4.10;;;;;;;16.87;50.50;99137.15;223433;189;137121;-67
2023/04/20 16:32:20;;;;;;;15.10;4.80;;;;;;;16.87;50.70;99136.80;223498;183;145074;-67
2023/04/20 16:37:24;;;;;;;13.50;4.40;;;;;;;16.86;50.74;99135.80;223465;182;138540;-66
2023/04/20 16:42:27;;;;;;;11.70;4.80;;;;;;;16.86;51.21;99137.62;223428;183;136727;-66
2023/04/20 16:47:30;;;;;;;15.70;4.80;;;;;;;16.82;51.37;99142.24;222846;183;145490;-67
2023/04/20 16:52:34;;;;;;;9.30;4.30;;;;;;;16.75;51.72;99146.27;221143;182;138120;-66
2023/04/20 16:57:38;;;;;;;10.40;4.50;;;;;;;16.66;51.96;99145.17;223436;217;137164;-65
2023/04/20 17:02:41;;;;;;;12.60;4.40;;;;;;;16.57;51.57;99144.04;223390;183;146121;-65
2023/04/20 17:07:45;;;;;;;11.10;3.80;;;;;;;16.49;51.11;99141.96;223463;206;139558;-65
2023/04/20 17:12:48;;;;;;;14.50;4.40;;;;;;;16.42;51.17;99140.78;223442;183;137544;-65
2023/04/20 17:17:51;;;;;;;10.50;3.80;;;;;;;16.41;51.80;99143.40;223347;182;145456;-66
2023/04/20 17:22:54;;;;;;;12.50;4.00;;;;;;;16.35;52.30;99143.87;223356;182;140406;-67
2023/04/20 17:27:57;;;;;;;14.60;4.80;;;;;;;16.28;52.18;99145.76;223409;182;137301;-67
2023/04/20 17:33:01;;;;;;;18.20;4.90;;;;;;;16.19;52.27;99145.58;223511;183;148167;-67
2023/04/20 17:38:04;;;;;;;15.10;4.60;;;;;;;16.12;52.44;99148.66;223588;183;138601;-65
2023/04/20 17:43:07;;;;;;;36.80;22.20;;;;;;;16.03;52.94;99152.31;223671;183;139676;-65
2023/04/20 17:48:11;;;;;;;17.30;5.80;;;;;;;15.97;53.07;99150.49;223564;183;145917;-65
2023/04/20 17:53:14;;;;;;;13.10;5.60;;;;;;;15.81;53.52;99149.77;223522;183;138385;-65
2023/04/20 17:58:17;;;;;;;136.70;102.40;;;;;;;15.68;54.25;99148.02;223610;183;137409;-64
2023/04/20 18:03:20;;;;;;;29.20;18.80;;;;;;;15.64;55.19;99152.46;223603;183;145322;-64
2023/04/20 18:08:24;;;;;;;18.40;6.30;;;;;;;15.54;55.05;99146.95;223568;183;138407;-64
2023/04/20 18:13:27;;;;;;;18.50;7.30;;;;;;;15.42;55.14;99149.89;223633;183;140327;-64
2023/04/20 18:18:30;;;;;;;17.40;7.10;;;;;;;15.32;55.26;99151.21;223487;183;144973;-64
2023/04/20 18:25:32;;;;;;;15.60;7.20;;;;;;;15.27;55.87;99152.34;221917;192;666548;-65
2023/04/20 18:30:37;;;;;;;24.70;7.70;;;;;;;15.15;56.17;99153.88;223314;186;136889;-64
2023/04/20 18:35:41;;;;;;;21.50;9.80;;;;;;;15.09;56.26;99156.25;223330;185;143273;-65
2023/04/20 18:40:44;;;;;;;25.60;11.10;;;;;;;15.06;56.25;99157.73;223238;187;139009;-65
2023/04/20 18:45:48;;;;;;;20.70;11.10;;;;;;;15.07;56.21;99159.83;223213;187;137297;-65
2023/04/20 18:50:51;;;;;;;25.60;12.20;;;;;;;15.08;56.05;99159.23;223283;186;143593;-65
2023/04/20 18:56:00;;;;;;;26.40;11.60;;;;;;;15.07;56.29;99163.92;223734;182;138634;-65
2023/04/20 19:01:04;;;;;;;103.00;83.30;;;;;;;15.07;56.49;99168.05;223727;181;137216;-65
2023/04/20 19:06:07;;;;;;;38.60;22.60;;;;;;;15.11;56.52;99168.67;223688;181;143575;-65
2023/04/20 19:11:10;;;;;;;27.30;12.10;;;;;;;15.12;56.19;99167.95;223630;182;138817;-65
2023/04/20 19:16:14;;;;;;;23.90;12.20;;;;;;;15.07;55.97;99163.40;223666;181;137312;-65
2023/04/20 19:21:17;;;;;;;24.70;11.90;;;;;;;15.01;56.06;99161.70;223762;182;145100;-65
2023/04/20 19:26:23;;;;;;;22.30;11.50;;;;;;;14.95;56.04;99160.63;223743;181;138966;-65
2023/04/20 19:31:31;;;;;;;23.00;11.80;;;;;;;14.87;55.91;99162.66;223750;182;137838;-65
2023/04/20 19:36:34;;;;;;;78.70;54.00;;;;;;;14.81;55.97;99160.77;223706;182;145263;-63
2023/04/20 19:41:38;;;;;;;70.20;48.60;;;;;;;14.84;56.02;99162.70;223756;182;138182;-64
2023/04/20 19:46:42;;;;;;;26.20;11.80;;;;;;;14.88;55.49;99155.42;223697;182;137310;-66
2023/04/20 19:51:45;;;;;;;22.10;10.50;;;;;;;14.81;55.01;99155.29;223708;182;146555;-65
2023/04/20 19:56:49;;;;;;;19.40;10.10;;;;;;;14.73;55.16;99158.93;223712;182;139969;-64
2023/04/20 20:01:52;;;;;;;19.90;9.80;;;;;;;14.63;55.20;99159.49;223726;182;137519;-65
2023/04/20 20:06:55;;;;;;;22.60;10.10;;;;;;;14.55;55.22;99163.67;223705;182;145839;-65
2023/04/20 20:12:00;;;;;;;21.30;9.90;;;;;;;14.48;55.08;99162.80;223720;182;138953;-64
2023/04/20 20:17:04;;;;;;;21.50;9.40;;;;;;;14.41;54.84;99161.84;223766;182;136536;-64
2023/04/20 20:22:08;;;;;;;22.20;9.90;;;;;;;14.35;54.88;99158.03;223734;182;146251;-64
2023/04/20 20:27:11;;;;;;;17.60;9.10;;;;;;;14.28;55.11;99155.14;223713;183;138458;-65
2023/04/20 20:32:26;;;;;;;16.10;9.30;;;;;;;14.24;55.08;99159.40;223750;182;137265;-63
2023/04/20 20:37:33;;;;;;;15.20;9.90;;;;;;;14.18;55.11;99156.67;223744;182;145799;-64
2023/04/20 20:42:38;;;;;;;20.30;9.30;;;;;;;14.09;54.78;99154.25;223683;182;139121;-66
2023/04/20 20:47:43;;;;;;;21.70;10.00;;;;;;;14.05;54.90;99157.48;223778;182;136549;-67
2023/04/20 20:52:46;;;;;;;18.40;9.40;;;;;;;14.00;54.73;99160.14;223757;182;146134;-66
2023/04/20 20:57:50;;;;;;;20.50;10.50;;;;;;;13.96;54.87;99160.02;223734;182;139034;-67
2023/04/20 21:02:53;;;;;;;25.40;9.90;;;;;;;13.89;55.06;99158.23;223749;179;137493;-69
2023/04/20 21:07:56;;;;;;;20.30;9.20;;;;;;;13.81;54.76;99155.27;223618;182;145320;-69
2023/04/20 21:13:00;;;;;;;19.90;9.70;;;;;;;13.73;55.27;99156.95;223684;182;138183;-69
2023/04/20 21:18:03;;;;;;;17.90;9.20;;;;;;;13.62;55.66;99160.04;223674;182;137439;-69
2023/04/20 21:23:06;;;;;;;19.80;9.40;;;;;;;13.51;55.85;99158.91;223722;183;151283;-69
2023/04/20 21:28:09;;;;;;;22.10;9.60;;;;;;;13.41;55.93;99160.48;223725;182;138223;-66
2023/04/20 21:33:12;;;;;;;18.60;9.00;;;;;;;13.35;55.87;99164.00;223804;182;137361;-66
2023/04/20 21:38:16;;;;;;;20.80;9.20;;;;;;;13.29;55.84;99162.77;223686;182;145490;-64
2023/04/20 21:43:19;;;;;;;19.00;9.00;;;;;;;13.22;56.49;99166.80;223718;182;138717;-64
2023/04/20 21:48:23;;;;;;;15.50;8.90;;;;;;;13.16;56.61;99165.31;223759;182;139561;-64
2023/04/20 21:53:27;;;;;;;19.10;8.70;;;;;;;13.11;56.97;99164.73;223736;182;146370;-64
2023/04/20 21:58:30;;;;;;;21.60;9.00;;;;;;;13.05;57.27;99165.56;223746;182;138832;-64
2023/04/20 22:03:34;;;;;;;19.50;8.60;;;;;;;12.97;57.35;99164.44;223569;182;136938;-64
2023/04/20 22:08:39;;;;;;;20.50;8.50;;;;;;;12.89;57.76;99161.27;223618;181;147356;-64
2023/04/20 22:13:43;;;;;;;19.50;8.90;;;;;;;12.83;57.74;99158.50;223698;182;138951;-64
2023/04/20 22:18:47;;;;;;;22.90;9.60;;;;;;;12.75;57.88;99158.17;223689;182;139836;-64
2023/04/20 22:23:51;;;;;;;17.80;8.60;;;;;;;12.67;58.07;99156.58;223775;182;145988;-64
2023/04/20 22:29:03;;;;;;;19.90;9.20;;;;;;;12.61;58.36;99156.30;223608;182;139302;-64
2023/04/20 22:34:06;;;;;;;20.10;8.80;;;;;;;12.53;58.41;99162.66;223798;182;137311;-64
2023/04/20 22:39:10;;;;;;;18.90;8.70;;;;;;;12.47;58.76;99158.10;223843;182;144958;-63
2023/04/20 22:44:13;;;;;;;21.00;8.30;;;;;;;12.44;58.70;99159.73;223616;182;138876;-63
2023/04/20 22:49:16;;;;;;;22.00;9.00;;;;;;;12.41;58.40;99166.35;223756;183;137089;-64
2023/04/20 22:54:19;;;;;;;20.40;8.80;;;;;;;12.38;58.30;99165.30;223753;181;146954;-64
2023/04/20 22:59:22;;;;;;;18.40;9.00;;;;;;;12.34;58.36;99165.06;223653;182;138116;-63
2023/04/20 23:04:25;;;;;;;21.60;8.80;;;;;;;12.34;58.63;99162.23;223761;179;139609;-64
2023/04/20 23:09:28;;;;;;;19.80;9.60;;;;;;;12.31;59.22;99163.29;223800;182;145790;-63
2023/04/20 23:14:31;;;;;;;16.90;8.90;;;;;;;12.29;58.92;99164.27;223669;183;139227;-63
2023/04/20 23:19:34;;;;;;;19.30;8.90;;;;;;;12.30;58.94;99165.68;223757;182;137687;-65
2023/04/20 23:24:37;;;;;;;21.70;9.40;;;;;;;12.30;58.86;99160.52;223802;182;145314;-65
2023/04/20 23:29:40;;;;;;;15.90;8.80;;;;;;;12.33;60.14;99168.14;223685;181;140838;-66
2023/04/20 23:34:43;;;;;;;16.40;9.30;;;;;;;12.32;60.38;99178.38;223640;182;138723;-66
2023/04/20 23:39:46;;;;;;;32.80;10.10;;;;;;;12.28;60.44;99182.34;223788;182;145286;-66
2023/04/20 23:44:49;;;;;;;30.60;10.80;;;;;;;12.25;60.66;99182.04;223722;182;139212;-65
2023/04/20 23:49:52;;;;;;;30.40;10.40;;;;;;;12.21;60.61;99177.34;223692;182;138567;-65
2023/04/20 23:54:56;;;;;;;27.90;11.10;;;;;;;12.16;60.86;99179.62;223647;182;145226;-65
2023/04/20 23:59:59;;;;;;;29.80;10.30;;;;;;;12.15;60.83;99174.89;223695;182;138360;-64
